Time;durP1;ratioP1;P1;durP2;ratioP2;P2;SDS_P1;SDS_P2;PMS_P1;PMS_P2;Temp;Humidity;BMP_temperature;BMP_pressure;BME280_temperature;BME280_humidity;BME280_pressure;Samples;Min_cycle;Max_cycle;Signal;HPM_P1;HPM_P2
2022/05/26 00:01:29;;;;;;;;;;;;;;;17.23;nan;100877.38;5057209;28;19971;-70
2022/05/26 00:03:54;;;;;;;;;;;;;;;17.18;nan;100881.47;5068286;28;19931;-70
2022/05/26 00:06:20;;;;;;;;;;;;;;;17.15;nan;100873.78;5063666;28;19929;-70
2022/05/26 00:08:46;;;;;;;;;;;;;;;17.15;nan;100883.66;5055446;28;20011;-70
2022/05/26 00:11:17;;;;;;;;;;;;;;;17.16;nan;100883.47;5054566;28;19964;-70
2022/05/26 00:13:42;;;;;;;;;;;;;;;17.20;nan;100881.25;5059849;28;19924;-70
2022/05/26 00:16:08;;;;;;;;;;;;;;;17.20;nan;100887.41;5067962;28;19997;-71
2022/05/26 00:18:33;;;;;;;;;;;;;;;17.22;nan;100884.56;5063775;28;20429;-70
2022/05/26 00:20:59;;;;;;;;;;;;;;;17.26;nan;100883.19;5074983;28;19916;-70
2022/05/26 00:23:24;;;;;;;;;;;;;;;17.26;nan;100877.03;5069130;28;19925;-70
2022/05/26 00:25:49;;;;;;;;;;;;;;;17.28;nan;100880.31;5059742;28;20335;-70
2022/05/26 00:28:15;;;;;;;;;;;;;;;17.31;nan;100883.44;5062840;28;20388;-70
2022/05/26 00:30:40;;;;;;;;;;;;;;;17.33;nan;100885.94;5062117;28;19927;-70
2022/05/26 00:33:07;;;;;;;;;;;;;;;17.34;nan;100885.75;5060498;28;19920;-70
2022/05/26 00:35:34;;;;;;;;;;;;;;;17.36;nan;100896.25;5064275;28;19921;-70
2022/05/26 00:38:01;;;;;;;;;;;;;;;17.36;nan;100897.09;5062243;28;19974;-70
2022/05/26 00:40:26;;;;;;;;;;;;;;;17.36;nan;100897.09;5063683;28;19928;-71
2022/05/26 00:42:51;;;;;;;;;;;;;;;17.35;nan;100905.28;5056992;28;19974;-71
2022/05/26 00:45:17;;;;;;;;;;;;;;;17.33;nan;100907.34;5057938;28;19966;-70
2022/05/26 00:47:45;;;;;;;;;;;;;;;17.28;nan;100907.03;5065277;28;19932;-71
2022/05/26 00:50:13;;;;;;;;;;;;;;;17.20;nan;100908.78;5059295;28;19927;-70
2022/05/26 00:52:42;;;;;;;;;;;;;;;17.16;nan;100907.53;5060522;28;19974;-70
2022/05/26 00:55:10;;;;;;;;;;;;;;;17.11;nan;100909.09;5063201;28;19929;-70
2022/05/26 00:57:43;;;;;;;;;;;;;;;17.06;nan;100903.47;5058191;28;19927;-70
2022/05/26 01:00:19;;;;;;;;;;;;;;;17.02;nan;100899.50;5063669;28;19916;-70
2022/05/26 01:02:47;;;;;;;;;;;;;;;16.98;nan;100909.75;5057473;28;20011;-70
2022/05/26 01:05:16;;;;;;;;;;;;;;;16.95;nan;100900.25;5053974;28;20463;-70
2022/05/26 01:07:41;;;;;;;;;;;;;;;16.93;nan;100904.94;5060553;28;19984;-70
2022/05/26 01:10:07;;;;;;;;;;;;;;;16.90;nan;100904.47;5060628;28;20055;-70
2022/05/26 01:12:33;;;;;;;;;;;;;;;16.89;nan;100903.66;5062546;28;19974;-70
2022/05/26 01:15:06;;;;;;;;;;;;;;;16.87;nan;100911.00;5057699;28;19936;-70
2022/05/26 01:17:40;;;;;;;;;;;;;;;16.87;nan;100905.66;5060475;28;19932;-70
2022/05/26 01:20:17;;;;;;;;;;;;;;;16.87;nan;100918.22;5061706;28;19920;-70
2022/05/26 01:22:49;;;;;;;;;;;;;;;16.86;nan;100914.72;5062494;28;20388;-70
2022/05/26 01:25:14;;;;;;;;;;;;;;;16.82;nan;100907.25;5062327;28;19924;-70
2022/05/26 01:27:44;;;;;;;;;;;;;;;16.83;nan;100909.75;5058220;28;20024;-70
2022/05/26 01:30:23;;;;;;;;;;;;;;;16.82;nan;100907.25;5059146;28;19924;-70
2022/05/26 01:33:00;;;;;;;;;;;;;;;16.84;nan;100902.56;5060801;28;19924;-70
2022/05/26 01:35:55;;;;;;;;;;;;;;;16.86;nan;100903.22;5055890;28;20221;-70
2022/05/26 01:38:39;;;;;;;;;;;;;;;16.86;nan;100906.69;5050359;28;20284;-71
2022/05/26 01:41:04;;;;;;;;;;;;;;;16.88;nan;100902.00;5050477;28;19931;-70
2022/05/26 01:43:32;;;;;;;;;;;;;;;16.91;nan;100908.81;5062361;28;19929;-70
2022/05/26 01:45:57;;;;;;;;;;;;;;;16.93;nan;100907.63;5065172;28;19920;-70
2022/05/26 01:48:29;;;;;;;;;;;;;;;16.94;nan;100908.44;5055100;28;19921;-70
2022/05/26 01:51:02;;;;;;;;;;;;;;;16.94;nan;100903.09;5061995;28;20025;-70
2022/05/26 01:53:51;;;;;;;;;;;;;;;16.93;nan;100904.94;5060767;28;20294;-70
2022/05/26 01:56:25;;;;;;;;;;;;;;;16.95;nan;100902.09;5057300;28;19921;-70
2022/05/26 01:59:01;;;;;;;;;;;;;;;16.94;nan;100901.25;5063474;28;19928;-70
2022/05/26 02:01:28;;;;;;;;;;;;;;;16.94;nan;100906.59;5055070;28;21926;-70
2022/05/26 02:03:55;;;;;;;;;;;;;;;16.95;nan;100902.09;5061196;28;20351;-70
2022/05/26 02:06:32;;;;;;;;;;;;;;;16.94;nan;100909.28;5055899;28;20297;-70
2022/05/26 02:09:03;;;;;;;;;;;;;;;16.92;nan;100903.31;5060338;28;20007;-71
2022/05/26 02:11:30;;;;;;;;;;;;;;;16.90;nan;100909.81;5061319;28;19947;-71
2022/05/26 02:13:57;;;;;;;;;;;;;;;16.85;nan;100910.41;5060815;28;19925;-70
2022/05/26 02:16:33;;;;;;;;;;;;;;;16.80;nan;100907.41;5059686;28;20018;-71
2022/05/26 02:19:11;;;;;;;;;;;;;;;16.79;nan;100910.28;5060795;28;19921;-70
2022/05/26 02:21:43;;;;;;;;;;;;;;;16.73;nan;100906.47;5066376;28;19928;-71
2022/05/26 02:24:08;;;;;;;;;;;;;;;16.69;nan;100902.53;5057313;28;19920;-70
2022/05/26 02:26:35;;;;;;;;;;;;;;;16.66;nan;100906.38;5061204;28;19948;-70
2022/05/26 02:31:45;;;;;;;;;;;;;;;16.60;nan;100911.63;5054480;28;20003;-70
2022/05/26 02:34:11;;;;;;;;;;;;;;;16.62;nan;100904.25;5062485;28;19931;-71
2022/05/26 02:36:37;;;;;;;;;;;;;;;16.60;nan;100911.63;5055441;28;19932;-71
2022/05/26 02:39:04;;;;;;;;;;;;;;;16.61;nan;100915.94;5057528;28;19925;-71
2022/05/26 02:41:29;;;;;;;;;;;;;;;16.60;nan;100916.97;5062071;28;19932;-70
2022/05/26 02:43:55;;;;;;;;;;;;;;;16.62;nan;100909.59;5061997;28;19920;-70
2022/05/26 02:46:30;;;;;;;;;;;;;;;16.61;nan;100908.75;5056754;28;19921;-70
2022/05/26 02:48:55;;;;;;;;;;;;;;;16.61;nan;100915.94;5053177;28;19921;-71
2022/05/26 02:51:20;;;;;;;;;;;;;;;16.59;nan;100905.47;5059159;28;19983;-70
2022/05/26 02:53:48;;;;;;;;;;;;;;;16.57;nan;100907.47;5062972;28;19925;-70
2022/05/26 02:56:28;;;;;;;;;;;;;;;16.56;nan;100917.34;5059052;28;20331;-71
2022/05/26 02:58:53;;;;;;;;;;;;;;;16.58;nan;100911.78;5059146;28;20385;-70
2022/05/26 03:01:25;;;;;;;;;;;;;;;16.60;nan;100912.44;5057631;28;20019;-71
2022/05/26 03:03:55;;;;;;;;;;;;;;;16.61;nan;100914.09;5050808;28;19966;-70
2022/05/26 03:06:24;;;;;;;;;;;;;;;16.59;nan;100909.94;5056237;28;19920;-70
2022/05/26 03:08:50;;;;;;;;;;;;;;;16.52;nan;100912.53;5058828;28;19928;-71
2022/05/26 03:11:24;;;;;;;;;;;;;;;16.44;nan;100909.91;5060282;28;19929;-70
2022/05/26 03:13:50;;;;;;;;;;;;;;;16.41;nan;100907.63;5061682;28;20066;-70
2022/05/26 03:16:15;;;;;;;;;;;;;;;16.39;nan;100912.31;5057697;28;20354;-70
2022/05/26 03:18:41;;;;;;;;;;;;;;;16.39;nan;100914.97;5064638;28;20148;-70
2022/05/26 03:21:06;;;;;;;;;;;;;;;16.39;nan;100913.13;5061755;28;20274;-70
2022/05/26 03:23:32;;;;;;;;;;;;;;;16.41;nan;100920.97;5055709;28;19924;-70
2022/05/26 03:25:58;;;;;;;;;;;;;;;16.43;nan;100924.28;5061307;28;19921;-70
2022/05/26 03:28:24;;;;;;;;;;;;;;;16.42;nan;100922.63;5051897;28;19920;-70
2022/05/26 03:30:49;;;;;;;;;;;;;;;16.40;nan;100922.81;5060240;28;19929;-70
2022/05/26 03:33:15;;;;;;;;;;;;;;;16.37;nan;100927.66;5063134;28;19935;-70
2022/05/26 03:41:08;;;;;;;;;;;;;;;16.14;nan;100944.53;5065181;28;20297;-70
2022/05/26 03:43:39;;;;;;;;;;;;;;;16.04;nan;100934.09;5060576;28;19928;-70
2022/05/26 03:46:05;;;;;;;;;;;;;;;15.95;nan;100945.00;5059383;28;19966;-70
2022/05/26 03:48:30;;;;;;;;;;;;;;;15.85;nan;100946.06;5062662;28;19928;-70
2022/05/26 03:50:55;;;;;;;;;;;;;;;15.77;nan;100943.44;5059021;28;19920;-70
2022/05/26 03:53:20;;;;;;;;;;;;;;;15.71;nan;100944.16;5066238;28;19927;-70
2022/05/26 03:55:46;;;;;;;;;;;;;;;15.67;nan;100942.78;5062960;28;19927;-70
2022/05/26 03:58:11;;;;;;;;;;;;;;;15.60;nan;100948.00;5063749;28;20126;-70
2022/05/26 04:00:36;;;;;;;;;;;;;;;15.51;nan;100947.19;5065354;28;20015;-71
2022/05/26 04:03:02;;;;;;;;;;;;;;;15.43;nan;100949.06;5058736;28;19920;-71
2022/05/26 04:05:27;;;;;;;;;;;;;;;15.36;nan;100948.09;5059239;28;19994;-71
2022/05/26 04:07:52;;;;;;;;;;;;;;;15.31;nan;100953.94;5067556;28;19916;-70
2022/05/26 04:10:19;;;;;;;;;;;;;;;15.26;nan;100954.47;5064753;28;19928;-70
2022/05/26 04:12:45;;;;;;;;;;;;;;;15.24;nan;100964.47;5064070;28;19935;-70
2022/05/26 04:15:11;;;;;;;;;;;;;;;15.23;nan;100970.81;5067142;28;19924;-70
2022/05/26 04:17:36;;;;;;;;;;;;;;;15.21;nan;100980.78;5059119;28;19973;-70
2022/05/26 04:20:02;;;;;;;;;;;;;;;15.22;nan;100981.63;5064195;28;20007;-71
2022/05/26 04:22:27;;;;;;;;;;;;;;;15.18;nan;100983.81;5055050;28;19928;-70
2022/05/26 04:24:57;;;;;;;;;;;;;;;15.14;nan;100984.31;5065308;28;19920;-70
2022/05/26 04:27:23;;;;;;;;;;;;;;;15.12;nan;100981.00;5057372;28;20363;-70
2022/05/26 04:29:49;;;;;;;;;;;;;;;15.13;nan;100983.47;5062044;28;19920;-70
2022/05/26 04:32:14;;;;;;;;;;;;;;;15.19;nan;100992.63;5057404;28;19925;-70
2022/05/26 04:34:39;;;;;;;;;;;;;;;15.32;nan;100995.56;5055662;28;19925;-70
2022/05/26 04:37:05;;;;;;;;;;;;;;;15.49;nan;100996.34;5059499;28;19920;-70
2022/05/26 04:39:31;;;;;;;;;;;;;;;15.65;nan;100995.44;5062844;28;20008;-70
2022/05/26 04:42:03;;;;;;;;;;;;;;;15.78;nan;100997.56;5065457;28;19925;-70
2022/05/26 04:44:39;;;;;;;;;;;;;;;15.91;nan;100992.53;5056201;28;19929;-70
2022/05/26 04:47:04;;;;;;;;;;;;;;;16.02;nan;100999.31;5063244;28;20331;-71
2022/05/26 04:49:30;;;;;;;;;;;;;;;16.11;nan;101003.56;5063955;28;20008;-70
2022/05/26 04:51:55;;;;;;;;;;;;;;;16.17;nan;100997.53;5059449;28;20015;-71
2022/05/26 04:54:21;;;;;;;;;;;;;;;16.23;nan;101002.19;5060153;28;20374;-70
2022/05/26 04:56:46;;;;;;;;;;;;;;;16.29;nan;101005.97;5063177;28;20373;-71
2022/05/26 04:59:11;;;;;;;;;;;;;;;16.33;nan;101008.09;5058199;28;19920;-71
2022/05/26 05:01:37;;;;;;;;;;;;;;;16.40;nan;101007.38;5056379;28;20466;-71
2022/05/26 05:04:02;;;;;;;;;;;;;;;16.45;nan;101010.38;5064062;28;19931;-71
2022/05/26 05:06:28;;;;;;;;;;;;;;;16.52;nan;101003.31;5058771;28;19979;-71
2022/05/26 05:08:53;;;;;;;;;;;;;;;16.54;nan;101014.59;5060972;28;20321;-70
2022/05/26 05:11:18;;;;;;;;;;;;;;;16.60;nan;101019.25;5064673;28;20005;-70
2022/05/26 05:13:44;;;;;;;;;;;;;;;16.68;nan;101021.84;5059420;28;19954;-71
2022/05/26 05:16:15;;;;;;;;;;;;;;;16.74;nan;101025.63;5063301;28;20405;-71
2022/05/26 05:18:41;;;;;;;;;;;;;;;16.83;nan;101026.41;5057022;28;20436;-71
2022/05/26 05:21:10;;;;;;;;;;;;;;;16.90;nan;101030.03;5062915;28;19920;-71
2022/05/26 05:23:41;;;;;;;;;;;;;;;16.96;nan;101032.81;5059831;28;20338;-71
2022/05/26 05:26:09;;;;;;;;;;;;;;;17.07;nan;101034.22;5055799;28;19921;-71
2022/05/26 05:28:37;;;;;;;;;;;;;;;17.19;nan;101040.78;5056769;28;19924;-70
2022/05/26 05:31:06;;;;;;;;;;;;;;;17.34;nan;101039.97;5062022;28;19927;-71
2022/05/26 05:33:33;;;;;;;;;;;;;;;17.45;nan;101055.56;5052290;28;19965;-70
2022/05/26 05:36:05;;;;;;;;;;;;;;;17.51;nan;101049.44;5064421;28;19920;-70
2022/05/26 05:38:31;;;;;;;;;;;;;;;17.58;nan;101058.38;5061756;28;19924;-71
2022/05/26 05:40:56;;;;;;;;;;;;;;;17.66;nan;101062.00;5048403;28;20007;-70
2022/05/26 05:43:21;;;;;;;;;;;;;;;17.65;nan;101066.50;5052810;28;19967;-70
2022/05/26 05:45:46;;;;;;;;;;;;;;;17.70;nan;101063.28;5059989;28;19940;-71
2022/05/26 05:48:12;;;;;;;;;;;;;;;17.74;nan;101060.06;5058726;28;19926;-71
2022/05/26 05:50:37;;;;;;;;;;;;;;;17.82;nan;101062.66;5059677;28;19927;-70
2022/05/26 05:53:02;;;;;;;;;;;;;;;17.86;nan;101067.66;5061610;28;19925;-70
2022/05/26 05:55:29;;;;;;;;;;;;;;;17.84;nan;101075.84;5056153;28;19932;-70
2022/05/26 05:57:54;;;;;;;;;;;;;;;17.87;nan;101077.31;5056610;28;20333;-71
2022/05/26 06:00:20;;;;;;;;;;;;;;;17.74;nan;101077.97;5060591;28;19993;-71
2022/05/26 06:02:45;;;;;;;;;;;;;;;17.78;nan;101079.22;5051970;28;20034;-71
2022/05/26 06:05:10;;;;;;;;;;;;;;;18.33;nan;101075.22;5061182;28;20365;-70
2022/05/26 06:07:38;;;;;;;;;;;;;;;18.63;nan;101081.25;5060486;28;19920;-70
2022/05/26 06:10:03;;;;;;;;;;;;;;;18.79;nan;101082.91;5061858;28;19946;-71
2022/05/26 06:12:29;;;;;;;;;;;;;;;18.92;nan;101082.19;5060836;28;19928;-71
2022/05/26 06:14:54;;;;;;;;;;;;;;;18.98;nan;101083.28;5066225;28;20291;-71
2022/05/26 06:17:20;;;;;;;;;;;;;;;18.94;nan;101082.00;5058021;28;19928;-71
2022/05/26 06:19:45;;;;;;;;;;;;;;;18.98;nan;101078.75;5057548;28;19925;-70
2022/05/26 06:22:12;;;;;;;;;;;;;;;19.05;nan;101089.53;5053198;28;20373;-70
2022/05/26 06:24:37;;;;;;;;;;;;;;;19.07;nan;101093.66;5061313;28;19960;-70
2022/05/26 06:29:49;;;;;;;;;;;;;;;19.22;nan;101085.53;5059926;28;19921;-71
2022/05/26 06:29:51;;;;;;;;;;;;;;;19.39;nan;101088.72;5063538;28;19932;-71
2022/05/26 06:37:48;;;;;;;;;;;;;;;19.44;nan;101096.19;5062387;28;19927;-71
2022/05/26 06:40:14;;;;;;;;;;;;;;;19.42;nan;101096.38;5058169;28;19975;-70
2022/05/26 06:42:39;;;;;;;;;;;;;;;19.46;nan;101100.34;5063770;28;19921;-71
2022/05/26 06:45:05;;;;;;;;;;;;;;;19.55;nan;101108.25;5056281;28;20033;-71
2022/05/26 06:47:31;;;;;;;;;;;;;;;19.63;nan;101103.53;5058738;28;20328;-71
2022/05/26 06:49:56;;;;;;;;;;;;;;;19.82;nan;101103.88;5067172;28;19928;-71
2022/05/26 06:52:22;;;;;;;;;;;;;;;19.98;nan;101108.91;5053566;28;19928;-71
2022/05/26 06:54:47;;;;;;;;;;;;;;;20.15;nan;101112.91;5053749;28;19944;-71
2022/05/26 06:57:13;;;;;;;;;;;;;;;20.12;nan;101113.31;5051110;28;19956;-71
2022/05/26 06:59:39;;;;;;;;;;;;;;;20.15;nan;101117.44;5054348;28;20015;-71
2022/05/26 07:02:06;;;;;;;;;;;;;;;20.10;nan;101120.72;5054606;28;19924;-71
2022/05/26 07:04:32;;;;;;;;;;;;;;;20.11;nan;101125.06;5052763;28;19921;-71
2022/05/26 07:06:57;;;;;;;;;;;;;;;20.24;nan;101120.81;5058012;28;19982;-71
2022/05/26 07:09:23;;;;;;;;;;;;;;;20.29;nan;101126.41;5056498;28;19921;-71
2022/05/26 07:11:49;;;;;;;;;;;;;;;20.14;nan;101131.88;5063695;28;19973;-71
2022/05/26 07:14:14;;;;;;;;;;;;;;;20.01;nan;101129.97;5054855;28;20282;-71
2022/05/26 07:16:41;;;;;;;;;;;;;;;19.82;nan;101139.59;5056556;28;20099;-71
2022/05/26 07:19:06;;;;;;;;;;;;;;;19.80;nan;101140.81;5063329;28;20324;-71
2022/05/26 07:21:31;;;;;;;;;;;;;;;19.82;nan;101136.91;5053179;28;19925;-71
2022/05/26 07:23:57;;;;;;;;;;;;;;;19.85;nan;101135.69;5057954;28;19920;-71
2022/05/26 07:26:24;;;;;;;;;;;;;;;19.89;nan;101140.44;5057726;28;19920;-71
2022/05/26 07:28:51;;;;;;;;;;;;;;;20.04;nan;101142.19;5057136;28;19928;-71
2022/05/26 07:31:16;;;;;;;;;;;;;;;20.19;nan;101150.94;5056639;28;19925;-71
2022/05/26 07:33:42;;;;;;;;;;;;;;;20.34;nan;101151.59;5058025;28;19931;-71
2022/05/26 07:41:16;;;;;;;;;;;;;;;20.54;nan;101157.03;5054931;28;19927;-72
2022/05/26 07:41:37;;;;;;;;;;;;;;;20.70;nan;101160.44;5057054;28;20455;-71
2022/05/26 07:44:02;;;;;;;;;;;;;;;20.74;nan;101151.75;5064116;28;19916;-71
2022/05/26 07:46:27;;;;;;;;;;;;;;;20.91;nan;101148.69;5053847;28;19967;-71
2022/05/26 07:48:53;;;;;;;;;;;;;;;21.02;nan;101156.13;5063093;28;19982;-71
2022/05/26 07:51:24;;;;;;;;;;;;;;;21.17;nan;101153.28;5055455;28;19964;-71
2022/05/26 07:53:50;;;;;;;;;;;;;;;21.17;nan;101153.28;5064946;28;19936;-71
2022/05/26 07:56:15;;;;;;;;;;;;;;;21.28;nan;101154.50;5061259;28;20372;-71
2022/05/26 07:58:40;;;;;;;;;;;;;;;21.49;nan;101153.47;5056546;28;19917;-71
2022/05/26 08:01:07;;;;;;;;;;;;;;;21.71;nan;101157.56;5060154;28;19964;-71
2022/05/26 08:03:33;;;;;;;;;;;;;;;21.90;nan;101160.44;5062877;28;20011;-71
2022/05/26 08:05:58;;;;;;;;;;;;;;;21.95;nan;101157.94;5064515;28;19920;-71
2022/05/26 08:08:24;;;;;;;;;;;;;;;21.87;nan;101152.81;5059809;28;20238;-71
2022/05/26 08:10:49;;;;;;;;;;;;;;;21.70;nan;101172.09;5061893;28;20288;-71
2022/05/26 08:13:14;;;;;;;;;;;;;;;21.68;nan;101158.00;5062577;28;19924;-71
2022/05/26 08:15:42;;;;;;;;;;;;;;;21.63;nan;101163.19;5061577;28;19983;-71
2022/05/26 08:18:07;;;;;;;;;;;;;;;21.45;nan;101169.19;5064602;28;19921;-72
2022/05/26 08:20:32;;;;;;;;;;;;;;;21.16;nan;101179.31;5060713;28;20412;-71
2022/05/26 08:22:58;;;;;;;;;;;;;;;21.07;nan;101175.19;5068419;28;19932;-71
2022/05/26 08:25:23;;;;;;;;;;;;;;;20.98;nan;101184.47;5064422;28;20456;-71
2022/05/26 08:27:48;;;;;;;;;;;;;;;20.86;nan;101178.06;5056199;28;19921;-70
2022/05/26 08:30:14;;;;;;;;;;;;;;;20.73;nan;101178.84;5064245;28;20365;-70
2022/05/26 08:32:39;;;;;;;;;;;;;;;20.68;nan;101181.31;5061083;28;19927;-70
2022/05/26 08:35:06;;;;;;;;;;;;;;;20.61;nan;101183.97;5065210;28;19924;-72
2022/05/26 08:37:31;;;;;;;;;;;;;;;20.48;nan;101182.03;5056323;28;19936;-70
2022/05/26 08:39:57;;;;;;;;;;;;;;;20.39;nan;101185.09;5058583;28;20106;-70
2022/05/26 08:42:27;;;;;;;;;;;;;;;20.35;nan;101185.50;5062795;28;19959;-70
2022/05/26 08:44:55;;;;;;;;;;;;;;;20.64;nan;101188.97;5050795;28;19952;-71
2022/05/26 08:47:21;;;;;;;;;;;;;;;20.96;nan;101194.59;5064340;28;19966;-72
2022/05/26 08:49:51;;;;;;;;;;;;;;;21.25;nan;101193.41;5065190;28;19928;-71
2022/05/26 08:52:19;;;;;;;;;;;;;;;21.52;nan;101185.34;5062852;28;19921;-70
2022/05/26 08:54:50;;;;;;;;;;;;;;;21.63;nan;101195.50;5059740;28;20551;-72
2022/05/26 08:57:19;;;;;;;;;;;;;;;21.66;nan;101199.63;5061150;28;19925;-72
2022/05/26 08:59:45;;;;;;;;;;;;;;;21.47;nan;101194.03;5063332;28;19978;-72
2022/05/26 09:02:23;;;;;;;;;;;;;;;21.26;nan;101200.44;5057509;28;19940;-71
2022/05/26 09:04:49;;;;;;;;;;;;;;;20.93;nan;101203.09;5052751;28;20004;-71
2022/05/26 09:12:59;;;;;;;;;;;;;;;19.93;nan;101202.63;5055319;28;19928;-71
2022/05/26 09:15:25;;;;;;;;;;;;;;;19.78;nan;101215.31;5054276;28;20339;-71
2022/05/26 09:17:50;;;;;;;;;;;;;;;19.73;nan;101211.38;5053717;28;19920;-71
2022/05/26 09:20:36;;;;;;;;;;;;;;;19.85;nan;101208.13;5053205;28;19961;-71
2022/05/26 09:23:12;;;;;;;;;;;;;;;20.36;nan;101213.19;5053596;28;20289;-71
2022/05/26 09:25:42;;;;;;;;;;;;;;;20.76;nan;101213.34;5050503;28;20366;-71
2022/05/26 09:28:09;;;;;;;;;;;;;;;21.11;nan;101215.94;5053033;28;20011;-71
2022/05/26 09:30:34;;;;;;;;;;;;;;;21.16;nan;101216.13;5051230;28;19929;-71
2022/05/26 09:33:00;;;;;;;;;;;;;;;21.14;nan;101216.38;5056927;28;19927;-71
2022/05/26 09:35:28;;;;;;;;;;;;;;;20.95;nan;101217.97;5052559;28;19925;-71
2022/05/26 09:37:55;;;;;;;;;;;;;;;20.82;nan;101217.94;5052709;28;19928;-71
2022/05/26 09:40:25;;;;;;;;;;;;;;;20.60;nan;101214.56;5052509;28;19923;-71
2022/05/26 09:42:56;;;;;;;;;;;;;;;20.28;nan;101219.53;5053180;28;20027;-71
2022/05/26 09:45:23;;;;;;;;;;;;;;;20.04;nan;101218.16;5052177;28;19925;-71
2022/05/26 09:47:53;;;;;;;;;;;;;;;20.02;nan;101219.41;5054264;28;19920;-71
2022/05/26 09:50:35;;;;;;;;;;;;;;;20.14;nan;101228.56;5052295;28;19920;-72
2022/05/26 09:53:01;;;;;;;;;;;;;;;20.07;nan;101233.91;5043195;28;19921;-71
2022/05/26 09:55:40;;;;;;;;;;;;;;;20.19;nan;101238.69;5053390;28;19991;-71
2022/05/26 09:58:06;;;;;;;;;;;;;;;20.50;nan;101232.91;5052789;28;19917;-72
2022/05/26 10:00:45;;;;;;;;;;;;;;;21.10;nan;101239.31;5047701;28;19978;-71
2022/05/26 10:03:19;;;;;;;;;;;;;;;22.10;nan;101239.34;5053315;28;19921;-71
2022/05/26 10:05:51;;;;;;;;;;;;;;;23.23;nan;101238.03;5052199;28;19935;-71
2022/05/26 10:08:30;;;;;;;;;;;;;;;24.64;nan;101233.78;5053152;28;19964;-71
2022/05/26 10:10:59;;;;;;;;;;;;;;;25.08;nan;101228.22;5052925;28;19965;-72
2022/05/26 10:13:42;;;;;;;;;;;;;;;25.34;nan;101235.13;5052661;28;19917;-72
2022/05/26 10:16:20;;;;;;;;;;;;;;;25.40;nan;101228.75;5050807;28;20410;-72
2022/05/26 10:18:48;;;;;;;;;;;;;;;25.18;nan;101223.91;5050266;28;19921;-72
2022/05/26 10:21:38;;;;;;;;;;;;;;;25.19;nan;101230.13;5048773;28;20328;-72
2022/05/26 10:24:17;;;;;;;;;;;;;;;25.47;nan;101229.47;5045803;28;19935;-72
2022/05/26 10:27:04;;;;;;;;;;;;;;;25.29;nan;101229.56;5055462;28;19920;-72
2022/05/26 10:29:32;;;;;;;;;;;;;;;24.74;nan;101217.88;5055365;28;19920;-71
2022/05/26 10:32:16;;;;;;;;;;;;;;;24.14;nan;101213.13;5050263;28;20262;-71
2022/05/26 10:34:48;;;;;;;;;;;;;;;23.60;nan;101213.91;5049984;28;19931;-71
2022/05/26 10:37:17;;;;;;;;;;;;;;;22.96;nan;101215.78;5051984;28;19932;-71
2022/05/26 10:39:56;;;;;;;;;;;;;;;22.39;nan;101218.34;5052351;28;19920;-71
2022/05/26 10:42:32;;;;;;;;;;;;;;;22.06;nan;101219.25;5051852;28;19928;-71
2022/05/26 10:45:14;;;;;;;;;;;;;;;21.63;nan;101222.41;5049912;28;19921;-71
2022/05/26 10:47:46;;;;;;;;;;;;;;;21.33;nan;101236.25;5051659;28;20023;-71
2022/05/26 10:50:30;;;;;;;;;;;;;;;21.17;nan;101231.25;5047829;28;19921;-71
2022/05/26 10:53:20;;;;;;;;;;;;;;;20.99;nan;101229.16;5060385;28;19932;-71
2022/05/26 10:56:04;;;;;;;;;;;;;;;20.89;nan;101226.84;5030516;28;19925;-71
2022/05/26 10:58:35;;;;;;;;;;;;;;;20.87;nan;101228.91;5061435;28;19929;-71
2022/05/26 11:01:07;;;;;;;;;;;;;;;20.87;nan;101222.72;5042734;28;20302;-71
2022/05/26 11:03:45;;;;;;;;;;;;;;;20.81;nan;101224.34;5059577;28;19921;-71
2022/05/26 11:06:25;;;;;;;;;;;;;;;20.72;nan;101230.94;5054026;28;19920;-71
2022/05/26 11:08:54;;;;;;;;;;;;;;;20.53;nan;101233.31;5057796;28;19943;-71
2022/05/26 11:11:32;;;;;;;;;;;;;;;20.24;nan;101231.72;5055305;28;19920;-71
2022/05/26 11:14:06;;;;;;;;;;;;;;;20.21;nan;101234.78;5058848;28;20305;-71
2022/05/26 11:19:33;;;;;;;;;;;;;;;20.73;nan;101236.09;5063917;28;20046;-71
2022/05/26 11:22:00;;;;;;;;;;;;;;;21.03;nan;101241.16;5056637;28;20351;-71
2022/05/26 11:24:25;;;;;;;;;;;;;;;21.26;nan;101238.09;5057337;28;19978;-71
2022/05/26 11:26:50;;;;;;;;;;;;;;;21.40;nan;101239.81;5055942;28;19932;-71
2022/05/26 11:29:34;;;;;;;;;;;;;;;21.83;nan;101227.75;5057000;28;19921;-72
2022/05/26 11:37:41;;;;;;;;;;;;;;;23.18;nan;101227.09;5053439;28;19936;-71
2022/05/26 11:40:09;;;;;;;;;;;;;;;23.55;nan;101228.06;5057589;28;19921;-71
2022/05/26 11:42:40;;;;;;;;;;;;;;;23.83;nan;101219.50;5053372;28;19920;-71
2022/05/26 11:45:05;;;;;;;;;;;;;;;23.66;nan;101218.41;5055355;28;19920;-71
2022/05/26 11:47:46;;;;;;;;;;;;;;;23.55;nan;101222.66;5055649;28;19920;-71
2022/05/26 11:50:20;;;;;;;;;;;;;;;23.36;nan;101224.47;5053666;28;20285;-71
2022/05/26 11:52:46;;;;;;;;;;;;;;;23.36;nan;101220.91;5058732;28;19968;-71
2022/05/26 11:55:31;;;;;;;;;;;;;;;23.35;nan;101225.50;5062757;28;20412;-71
2022/05/26 11:57:57;;;;;;;;;;;;;;;23.72;nan;101228.31;5063207;28;19943;-71
2022/05/26 12:00:34;;;;;;;;;;;;;;;23.95;nan;101225.84;5065810;28;19921;-71
2022/05/26 12:03:18;;;;;;;;;;;;;;;24.06;nan;101226.13;5068379;28;19987;-71
2022/05/26 12:05:45;;;;;;;;;;;;;;;23.99;nan;101228.91;5052541;28;20465;-72
2022/05/26 12:08:30;;;;;;;;;;;;;;;24.08;nan;101229.44;5056936;28;20069;-71
2022/05/26 12:10:58;;;;;;;;;;;;;;;24.30;nan;101229.81;5060484;28;19921;-71
2022/05/26 12:13:23;;;;;;;;;;;;;;;24.10;nan;101227.34;5062676;28;20388;-71
2022/05/26 12:16:07;;;;;;;;;;;;;;;24.03;nan;101226.59;5067183;28;19997;-71
2022/05/26 12:18:37;;;;;;;;;;;;;;;23.90;nan;101232.94;5057951;28;19928;-70
2022/05/26 12:21:16;;;;;;;;;;;;;;;23.79;nan;101225.56;5049364;28;20330;-71
2022/05/26 12:23:42;;;;;;;;;;;;;;;23.72;nan;101225.63;5053824;28;19924;-71
2022/05/26 12:26:33;;;;;;;;;;;;;;;23.87;nan;101222.59;5065349;28;20235;-71
2022/05/26 12:29:17;;;;;;;;;;;;;;;24.27;nan;101217.59;5048313;28;20011;-71
2022/05/26 12:32:03;;;;;;;;;;;;;;;25.13;nan;101220.22;5063264;28;19924;-71
2022/05/26 12:34:35;;;;;;;;;;;;;;;25.63;nan;101217.97;5051802;28;19924;-71
2022/05/26 12:37:02;;;;;;;;;;;;;;;25.62;nan;101213.63;5054141;28;19931;-71
2022/05/26 12:39:34;;;;;;;;;;;;;;;25.74;nan;101210.91;5060201;28;19975;-71
2022/05/26 12:41:59;;;;;;;;;;;;;;;25.77;nan;101201.47;5067791;28;20096;-71
2022/05/26 12:44:25;;;;;;;;;;;;;;;25.41;nan;101216.91;5058086;28;20163;-71
2022/05/26 12:47:03;;;;;;;;;;;;;;;24.99;nan;101206.06;5064223;28;19920;-71
2022/05/26 12:49:31;;;;;;;;;;;;;;;24.79;nan;101211.75;5065734;28;19925;-71
2022/05/26 12:52:26;;;;;;;;;;;;;;;24.58;nan;101203.09;5057014;28;19996;-71
2022/05/26 12:54:54;;;;;;;;;;;;;;;24.48;nan;101200.09;5054821;28;20011;-71
2022/05/26 12:57:22;;;;;;;;;;;;;;;24.35;nan;101195.66;5061677;28;20147;-71
2022/05/26 12:59:48;;;;;;;;;;;;;;;24.56;nan;101188.97;5064993;28;19921;-71
2022/05/26 13:02:14;;;;;;;;;;;;;;;24.56;nan;101194.38;5064025;28;20293;-71
2022/05/26 13:04:39;;;;;;;;;;;;;;;24.68;nan;101194.44;5060034;28;19921;-71
2022/05/26 13:07:06;;;;;;;;;;;;;;;24.90;nan;101191.19;5062192;28;19936;-71
2022/05/26 13:09:35;;;;;;;;;;;;;;;25.30;nan;101187.91;5062667;28;20305;-71
2022/05/26 13:12:01;;;;;;;;;;;;;;;25.73;nan;101184.03;5043774;28;20008;-71
2022/05/26 13:14:41;;;;;;;;;;;;;;;25.94;nan;101180.75;5052841;28;20452;-71
2022/05/26 13:17:14;;;;;;;;;;;;;;;25.99;nan;101183.56;5049264;28;19951;-71
2022/05/26 13:19:54;;;;;;;;;;;;;;;25.97;nan;101188.41;5054491;28;19927;-71
2022/05/26 13:22:22;;;;;;;;;;;;;;;25.84;nan;101194.06;5049419;28;20349;-71
2022/05/26 13:24:50;;;;;;;;;;;;;;;25.71;nan;101186.16;5078700;28;20382;-71
2022/05/26 13:27:15;;;;;;;;;;;;;;;25.59;nan;101178.84;5057671;28;19924;-71
2022/05/26 13:29:42;;;;;;;;;;;;;;;25.75;nan;101181.94;5061062;28;19943;-71
2022/05/26 13:34:55;;;;;;;;;;;;;;;25.61;nan;101182.16;5054661;28;19932;-71
2022/05/26 13:37:30;;;;;;;;;;;;;;;25.45;nan;101172.03;5054069;28;19924;-71
2022/05/26 13:40:04;;;;;;;;;;;;;;;25.21;nan;101169.28;5059251;28;19928;-71
2022/05/26 13:42:29;;;;;;;;;;;;;;;25.02;nan;101173.94;5064269;28;20298;-71